Time;durP1;ratioP1;P1;durP2;ratioP2;P2;SDS_P1;SDS_P2;PMS_P1;PMS_P2;Temp;Humidity;BMP_temperature;BMP_pressure;BME280_temperature;BME280_humidity;BME280_pressure;Samples;Min_cycle;Max_cycle;Signal;HPM_P1;HPM_P2
2021/08/23 00:00:09;;;;;;;4.20;3.20;;;17.30;91.10;;;;;;5098437;28;20449;-83
2021/08/23 00:02:36;;;;;;;6.47;2.90;;;17.30;91.30;;;;;;5097129;28;20491;-82
2021/08/23 00:05:04;;;;;;;5.10;2.77;;;17.30;90.90;;;;;;5099232;28;20469;-83
2021/08/23 00:07:31;;;;;;;5.10;3.40;;;17.30;90.90;;;;;;5098272;28;20460;-78
2021/08/23 00:09:58;;;;;;;3.30;3.00;;;17.30;90.60;;;;;;5099598;28;20446;-80
2021/08/23 00:12:26;;;;;;;5.23;3.00;;;17.30;90.60;;;;;;5099667;28;20452;-83
2021/08/23 00:14:55;;;;;;;4.53;3.07;;;17.30;90.60;;;;;;5099618;28;20490;-84
2021/08/23 00:17:22;;;;;;;4.80;3.50;;;17.30;90.60;;;;;;5098474;28;20480;-81
2021/08/23 00:19:49;;;;;;;3.53;2.90;;;17.30;90.60;;;;;;5084141;28;20459;-79
2021/08/23 00:22:23;;;;;;;4.67;2.93;;;17.30;90.60;;;;;;5086069;28;20459;-80
2021/08/23 00:24:51;;;;;;;6.47;4.00;;;17.30;90.60;;;;;;5092907;28;20511;-81
2021/08/23 00:27:19;;;;;;;4.33;3.10;;;17.30;90.80;;;;;;5092570;28;20492;-80
2021/08/23 00:29:47;;;;;;;5.30;3.13;;;17.30;91.00;;;;;;5092994;28;20444;-82
2021/08/23 00:32:17;;;;;;;6.00;3.10;;;17.30;90.80;;;;;;5097549;28;20520;-82
2021/08/23 00:34:44;;;;;;;4.10;2.53;;;17.30;90.60;;;;;;5092482;28;20480;-81
2021/08/23 00:37:14;;;;;;;3.80;3.17;;;17.30;90.60;;;;;;5098553;28;20445;-83
2021/08/23 00:39:42;;;;;;;3.77;3.00;;;17.30;90.60;;;;;;5094348;28;20458;-80
2021/08/23 00:42:13;;;;;;;4.37;3.07;;;17.30;90.60;;;;;;5087245;28;20895;-80
2021/08/23 00:44:42;;;;;;;3.80;3.00;;;17.30;90.60;;;;;;5087758;28;20861;-79
2021/08/23 00:47:09;;;;;;;4.87;3.57;;;17.30;90.60;;;;;;5080535;28;20489;-80
2021/08/23 00:49:38;;;;;;;3.40;2.77;;;17.30;90.60;;;;;;5078005;28;20470;-79
2021/08/23 00:52:07;;;;;;;3.50;3.03;;;17.30;90.60;;;;;;5079392;28;20453;-79
2021/08/23 00:54:35;;;;;;;3.10;2.50;;;17.30;90.60;;;;;;5078321;28;20478;-79
2021/08/23 00:57:02;;;;;;;3.73;3.00;;;17.20;90.90;;;;;;5077096;28;20675;-79
2021/08/23 00:59:31;;;;;;;4.63;3.70;;;17.20;91.10;;;;;;5078633;28;20567;-79
2021/08/23 01:02:06;;;;;;;3.23;2.93;;;17.30;91.00;;;;;;5077947;28;20278;-81
2021/08/23 01:04:41;;;;;;;3.63;3.13;;;17.30;90.60;;;;;;5078657;28;20476;-80
2021/08/23 01:07:13;;;;;;;4.10;2.93;;;17.20;90.70;;;;;;5082129;28;20901;-80
2021/08/23 01:09:43;;;;;;;3.23;2.93;;;17.20;90.50;;;;;;5082642;28;20483;-80
2021/08/23 01:12:12;;;;;;;3.87;2.43;;;17.30;90.60;;;;;;5090211;28;20461;-80
2021/08/23 01:14:39;;;;;;;3.57;2.93;;;17.30;90.60;;;;;;5090272;28;20482;-80
2021/08/23 01:17:06;;;;;;;3.10;2.80;;;17.30;90.60;;;;;;5095790;28;20453;-81
2021/08/23 01:19:36;;;;;;;4.37;3.20;;;17.30;90.60;;;;;;5097553;28;20474;-82
2021/08/23 01:22:05;;;;;;;3.40;2.60;;;17.30;90.20;;;;;;5098300;28;20507;-81
2021/08/23 01:24:35;;;;;;;3.50;2.97;;;17.30;90.40;;;;;;5095962;28;21018;-79
2021/08/23 01:27:07;;;;;;;6.13;2.60;;;17.30;90.60;;;;;;5094759;28;20474;-82
2021/08/23 01:29:44;;;;;;;3.30;2.70;;;17.20;90.50;;;;;;5096825;28;20510;-80
2021/08/23 01:32:19;;;;;;;4.67;2.70;;;17.30;90.60;;;;;;5096074;28;20458;-81
2021/08/23 01:34:48;;;;;;;4.97;3.10;;;17.30;90.60;;;;;;5095118;28;20479;-80
2021/08/23 01:37:16;;;;;;;5.20;2.63;;;17.20;90.50;;;;;;5080475;28;20214;-79
2021/08/23 01:39:45;;;;;;;6.07;2.70;;;17.30;90.60;;;;;;5083296;28;20457;-79
2021/08/23 01:42:13;;;;;;;3.57;2.60;;;17.20;90.50;;;;;;5078429;28;20460;-80
2021/08/23 01:44:40;;;;;;;2.70;2.50;;;17.30;90.60;;;;;;5082779;28;20482;-81
2021/08/23 01:47:08;;;;;;;6.37;3.10;;;17.30;90.60;;;;;;5082613;28;20480;-82
2021/08/23 01:49:37;;;;;;;4.73;3.23;;;17.30;90.60;;;;;;5084198;28;20479;-80
2021/08/23 01:52:05;;;;;;;3.20;2.40;;;17.30;90.40;;;;;;5085570;28;20449;-80
2021/08/23 01:54:33;;;;;;;3.57;2.70;;;17.30;90.60;;;;;;5084041;28;20480;-80
2021/08/23 01:57:05;;;;;;;4.97;3.13;;;17.30;90.60;;;;;;5085639;28;20442;-79
2021/08/23 01:59:33;;;;;;;6.00;2.93;;;17.20;90.50;;;;;;5084160;28;20459;-80
2021/08/23 02:02:00;;;;;;;2.90;2.60;;;17.30;90.60;;;;;;5084309;28;20793;-80
2021/08/23 02:04:28;;;;;;;5.83;2.93;;;17.30;90.60;;;;;;5088241;28;20819;-80
2021/08/23 02:06:59;;;;;;;5.50;3.30;;;17.30;90.70;;;;;;5085252;28;20471;-80
2021/08/23 02:09:27;;;;;;;8.47;3.00;;;17.30;90.60;;;;;;5091203;28;20468;-80
2021/08/23 02:11:53;;;;;;;3.87;3.00;;;17.30;90.60;;;;;;5086810;28;20464;-79
2021/08/23 02:14:24;;;;;;;4.20;2.77;;;17.30;90.60;;;;;;5080099;28;20503;-79
2021/08/23 02:16:54;;;;;;;3.37;3.07;;;17.20;90.80;;;;;;5080743;28;20459;-80
2021/08/23 02:19:22;;;;;;;6.30;3.13;;;17.30;90.90;;;;;;5078849;28;20710;-79
2021/08/23 02:21:50;;;;;;;4.90;3.33;;;17.20;90.80;;;;;;5077647;28;20456;-79
2021/08/23 02:24:23;;;;;;;3.03;2.70;;;17.20;90.90;;;;;;5082818;28;20470;-79
2021/08/23 02:26:51;;;;;;;7.53;3.40;;;17.20;91.40;;;;;;5086915;28;20506;-80
2021/08/23 02:29:18;;;;;;;6.30;2.50;;;17.20;91.80;;;;;;5092501;28;20451;-80
2021/08/23 02:31:48;;;;;;;3.80;3.10;;;17.20;91.70;;;;;;5091312;28;20454;-80
2021/08/23 02:34:15;;;;;;;4.43;2.60;;;17.20;91.80;;;;;;5092436;28;20527;-79
2021/08/23 02:36:48;;;;;;;4.40;2.77;;;17.20;91.90;;;;;;5096261;28;20457;-78
2021/08/23 02:39:18;;;;;;;4.10;2.45;;;17.20;92.20;;;;;;5088204;28;20441;-80
2021/08/23 02:41:49;;;;;;;5.40;2.80;;;17.20;92.30;;;;;;5086858;28;20212;-80
2021/08/23 02:44:16;;;;;;;3.77;3.03;;;17.20;92.50;;;;;;5076313;28;20478;-78
2021/08/23 02:46:42;;;;;;;4.83;3.33;;;17.10;93.10;;;;;;5079774;28;21039;-78
2021/08/23 02:49:09;;;;;;;3.90;2.90;;;17.10;93.60;;;;;;5082653;28;20471;-80
2021/08/23 02:51:36;;;;;;;4.50;3.20;;;17.10;94.20;;;;;;5092610;28;20452;-80
2021/08/23 02:54:03;;;;;;;5.60;2.90;;;17.10;94.70;;;;;;5089011;28;20523;-78
2021/08/23 02:56:30;;;;;;;5.80;3.10;;;17.10;95.90;;;;;;5079208;28;20813;-79
2021/08/23 02:58:58;;;;;;;5.53;3.40;;;17.00;96.60;;;;;;5077521;28;20293;-78
2021/08/23 03:01:25;;;;;;;4.73;3.40;;;16.90;97.70;;;;;;5077639;28;20539;-80
2021/08/23 03:03:52;;;;;;;3.03;2.72;;;16.90;98.60;;;;;;5076975;28;21004;-79
2021/08/23 03:06:19;;;;;;;3.90;3.10;;;16.90;99.50;;;;;;5077521;28;20718;-79
2021/08/23 03:08:46;;;;;;;4.97;3.07;;;16.80;99.40;;;;;;5077317;28;20535;-79
2021/08/23 03:11:14;;;;;;;6.63;3.47;;;16.80;99.80;;;;;;5078214;28;20495;-80
2021/08/23 03:13:43;;;;;;;4.60;3.40;;;16.80;99.90;;;;;;5079791;28;20455;-81
2021/08/23 03:16:12;;;;;;;6.90;3.15;;;16.70;99.90;;;;;;5078529;28;20519;-80
2021/08/23 03:18:40;;;;;;;3.43;3.10;;;16.70;99.90;;;;;;5079767;28;20253;-79
2021/08/23 03:21:07;;;;;;;6.37;3.20;;;16.70;99.90;;;;;;5076858;28;20443;-78
2021/08/23 03:23:34;;;;;;;5.88;3.10;;;16.60;99.90;;;;;;5077751;28;20539;-79
2021/08/23 03:26:02;;;;;;;3.40;3.10;;;16.70;99.90;;;;;;5079850;28;20246;-78
2021/08/23 03:28:29;;;;;;;3.90;3.37;;;16.70;99.90;;;;;;5086743;28;20464;-81
2021/08/23 03:30:56;;;;;;;7.33;3.43;;;16.60;99.90;;;;;;5082974;28;20495;-79
2021/08/23 03:33:24;;;;;;;5.43;2.70;;;16.60;99.90;;;;;;5088195;28;20480;-80
2021/08/23 03:35:51;;;;;;;6.70;3.55;;;16.50;99.90;;;;;;5099379;28;20460;-81
2021/08/23 03:38:18;;;;;;;4.13;3.10;;;16.50;99.90;;;;;;5088050;28;20211;-80
2021/08/23 03:40:45;;;;;;;5.13;3.15;;;16.60;99.90;;;;;;5093644;28;20433;-82
2021/08/23 03:43:12;;;;;;;3.70;3.40;;;16.60;99.90;;;;;;5089750;28;20255;-81
2021/08/23 03:45:39;;;;;;;9.37;3.23;;;16.50;99.90;;;;;;5079660;28;20275;-79
2021/08/23 03:48:06;;;;;;;4.67;3.10;;;16.60;99.90;;;;;;5078058;28;20520;-79
2021/08/23 03:50:34;;;;;;;3.37;3.07;;;16.60;99.90;;;;;;5079976;28;20968;-81
2021/08/23 03:53:01;;;;;;;4.20;3.17;;;16.60;99.90;;;;;;5083506;28;20531;-79
2021/08/23 03:55:28;;;;;;;4.90;3.70;;;16.60;99.90;;;;;;5077927;28;20746;-79
2021/08/23 03:57:55;;;;;;;4.95;3.85;;;16.60;99.90;;;;;;5078920;28;20288;-79
2021/08/23 04:00:22;;;;;;;8.80;2.97;;;16.60;99.90;;;;;;5078765;28;20294;-80
2021/08/23 04:02:49;;;;;;;3.17;2.87;;;16.60;99.90;;;;;;5067122;22;20258;-74
2021/08/23 04:05:16;;;;;;;3.72;2.88;;;16.60;99.90;;;;;;5034524;28;20445;-74
2021/08/23 04:07:44;;;;;;;5.00;3.03;;;16.60;99.90;;;;;;5034636;28;20227;-75
2021/08/23 04:10:11;;;;;;;4.13;3.35;;;16.60;99.90;;;;;;5034759;28;20246;-75
2021/08/23 04:12:38;;;;;;;7.53;3.25;;;16.50;99.90;;;;;;5034887;28;20295;-74
2021/08/23 04:15:06;;;;;;;3.53;3.30;;;16.60;99.90;;;;;;5043684;28;20256;-75
2021/08/23 04:17:33;;;;;;;3.10;2.80;;;16.60;99.90;;;;;;5056779;28;20191;-76
2021/08/23 04:20:02;;;;;;;3.90;3.23;;;16.70;99.90;;;;;;5057881;28;20475;-76
2021/08/23 04:22:29;;;;;;;4.83;2.80;;;16.60;99.90;;;;;;5058018;28;20518;-76
2021/08/23 04:24:57;;;;;;;4.10;3.50;;;16.70;99.90;;;;;;5058635;28;20443;-76
2021/08/23 04:27:24;;;;;;;4.20;3.53;;;16.70;99.90;;;;;;5040736;28;20836;-76
2021/08/23 04:29:51;;;;;;;4.25;3.50;;;16.60;99.90;;;;;;5034593;28;20535;-76
2021/08/23 04:32:18;;;;;;;4.67;3.63;;;16.70;99.90;;;;;;5036063;28;20231;-76
2021/08/23 04:34:45;;;;;;;4.50;3.30;;;16.70;99.90;;;;;;5034263;28;20464;-75
2021/08/23 04:37:12;;;;;;;8.20;3.13;;;16.70;99.90;;;;;;5034449;28;20553;-75
2021/08/23 04:39:39;;;;;;;3.70;3.25;;;16.60;99.90;;;;;;5033714;28;20508;-76
2021/08/23 04:42:07;;;;;;;4.70;3.20;;;16.60;99.90;;;;;;5034709;28;20314;-76
2021/08/23 04:44:34;;;;;;;5.97;3.80;;;16.60;99.90;;;;;;5033906;28;20451;-76
2021/08/23 04:47:01;;;;;;;3.20;3.00;;;16.60;99.90;;;;;;5034430;28;20592;-76
2021/08/23 04:49:28;;;;;;;7.00;3.58;;;16.60;99.90;;;;;;5035150;28;20211;-75
2021/08/23 04:51:55;;;;;;;4.00;3.28;;;16.60;99.90;;;;;;5034758;28;20262;-75
2021/08/23 04:54:22;;;;;;;5.77;3.80;;;16.60;99.90;;;;;;5034103;28;20302;-75
2021/08/23 04:56:49;;;;;;;3.70;3.40;;;16.60;99.90;;;;;;5033876;28;20446;-75
2021/08/23 04:59:17;;;;;;;3.35;3.05;;;16.60;99.90;;;;;;5034576;28;20260;-75
2021/08/23 05:01:44;;;;;;;3.60;3.30;;;16.70;99.90;;;;;;5037718;28;20235;-76
2021/08/23 05:04:11;;;;;;;5.50;3.37;;;16.70;99.90;;;;;;5054606;28;20450;-76
2021/08/23 05:06:38;;;;;;;3.73;3.40;;;16.60;99.90;;;;;;5057196;28;20479;-76
2021/08/23 05:09:05;;;;;;;7.68;3.55;;;16.60;99.90;;;;;;5058023;28;20484;-77
2021/08/23 05:11:32;;;;;;;3.03;2.72;;;16.70;99.90;;;;;;5045437;28;20231;-76
2021/08/23 05:13:59;;;;;;;6.65;4.32;;;16.70;99.90;;;;;;5057941;28;20191;-76
2021/08/23 05:16:27;;;;;;;4.90;3.70;;;16.60;99.90;;;;;;5057818;28;20203;-76
2021/08/23 05:18:54;;;;;;;4.00;3.35;;;16.70;99.70;;;;;;5035222;28;20541;-75
2021/08/23 05:21:20;;;;;;;4.05;2.67;;;16.60;99.40;;;;;;5033099;28;20315;-76
2021/08/23 05:23:47;;;;;;;7.32;3.40;;;16.60;99.30;;;;;;5033528;28;20242;-76
2021/08/23 05:26:14;;;;;;;6.57;3.70;;;16.70;99.40;;;;;;5033890;28;20214;-76
2021/08/23 05:28:41;;;;;;;7.00;3.00;;;16.60;99.40;;;;;;5032984;28;20240;-75
2021/08/23 05:31:08;;;;;;;3.40;3.10;;;16.60;99.90;;;;;;5033614;28;20480;-77
2021/08/23 05:33:36;;;;;;;3.60;3.30;;;16.60;99.90;;;;;;5033851;28;20466;-76
2021/08/23 05:36:04;;;;;;;8.85;3.53;;;16.60;99.90;;;;;;5033743;28;20479;-75
2021/08/23 05:38:31;;;;;;;3.73;3.30;;;16.70;99.90;;;;;;5033695;28;20510;-75
2021/08/23 05:40:57;;;;;;;4.80;3.25;;;16.70;99.90;;;;;;5033373;28;20450;-76
2021/08/23 05:43:25;;;;;;;4.33;3.57;;;16.70;99.90;;;;;;5033737;28;20294;-74
2021/08/23 05:45:52;;;;;;;6.70;3.43;;;16.70;99.90;;;;;;5041326;28;20451;-76
2021/08/23 05:48:19;;;;;;;3.57;3.23;;;16.70;99.90;;;;;;5051543;28;20488;-75
2021/08/23 05:50:50;;;;;;;6.50;3.60;;;16.70;99.90;;;;;;5046228;28;20459;-76
2021/08/23 05:53:17;;;;;;;4.43;3.40;;;16.60;99.90;;;;;;5039096;28;20442;-75
2021/08/23 05:55:44;;;;;;;3.90;3.60;;;16.60;99.90;;;;;;5038227;28;20537;-75
2021/08/23 05:58:11;;;;;;;5.00;3.73;;;16.60;99.90;;;;;;5038502;28;20450;-75
2021/08/23 06:00:38;;;;;;;5.50;3.83;;;16.70;99.90;;;;;;5036593;28;20461;-77
2021/08/23 06:03:06;;;;;;;6.30;3.87;;;16.80;99.90;;;;;;5042901;28;21009;-76
2021/08/23 06:05:33;;;;;;;7.13;3.40;;;16.90;99.90;;;;;;5046370;28;20457;-76
2021/08/23 06:08:01;;;;;;;3.37;3.07;;;16.90;99.90;;;;;;5047510;28;20557;-75
2021/08/23 06:10:28;;;;;;;3.70;3.10;;;17.10;99.90;;;;;;5043476;28;20448;-74
2021/08/23 06:12:55;;;;;;;3.83;3.53;;;17.40;99.70;;;;;;5033571;28;20522;-74
2021/08/23 06:15:22;;;;;;;8.10;2.87;;;17.60;97.00;;;;;;5033826;28;20461;-76
2021/08/23 06:17:49;;;;;;;4.33;3.93;;;17.60;94.40;;;;;;5034115;28;20456;-74
2021/08/23 06:20:16;;;;;;;4.73;3.83;;;17.50;94.10;;;;;;5038432;28;20486;-76
2021/08/23 06:22:46;;;;;;;6.07;3.47;;;17.50;95.30;;;;;;5038579;28;20481;-75
2021/08/23 06:25:15;;;;;;;5.67;3.53;;;17.50;94.80;;;;;;5056560;28;20455;-76
2021/08/23 06:27:42;;;;;;;4.60;3.17;;;17.60;94.40;;;;;;5059147;28;20475;-75
2021/08/23 06:30:11;;;;;;;4.60;2.93;;;17.60;94.40;;;;;;5059428;28;20442;-75
2021/08/23 06:32:39;;;;;;;3.10;2.80;;;17.50;94.30;;;;;;5061614;28;20483;-78
2021/08/23 06:35:07;;;;;;;8.33;2.90;;;17.50;93.40;;;;;;5061512;28;20464;-76
2021/08/23 06:37:35;;;;;;;4.10;3.13;;;17.60;92.60;;;;;;5061588;28;20446;-76
2021/08/23 06:40:07;;;;;;;6.50;3.63;;;17.50;91.70;;;;;;5058660;28;20478;-76
2021/08/23 06:42:36;;;;;;;7.33;3.43;;;17.40;92.70;;;;;;5056859;28;20507;-75
2021/08/23 06:45:05;;;;;;;6.80;3.10;;;17.40;93.00;;;;;;5039458;28;21017;-74
2021/08/23 06:47:32;;;;;;;5.10;3.77;;;17.40;93.50;;;;;;5038541;28;20490;-75
2021/08/23 06:49:59;;;;;;;7.40;3.57;;;17.30;93.50;;;;;;5039921;28;20562;-75
2021/08/23 06:52:25;;;;;;;8.50;3.83;;;17.40;93.70;;;;;;5038694;28;20511;-75
2021/08/23 06:54:52;;;;;;;7.10;3.67;;;17.40;93.10;;;;;;5039834;28;20971;-75
2021/08/23 06:57:19;;;;;;;8.10;3.20;;;17.40;92.50;;;;;;5039467;28;20483;-76
2021/08/23 06:59:48;;;;;;;5.67;3.70;;;17.40;92.20;;;;;;5040019;28;20458;-75
2021/08/23 07:02:14;;;;;;;4.50;3.63;;;17.40;92.30;;;;;;5036212;28;20493;-75
2021/08/23 07:04:41;;;;;;;7.57;3.83;;;17.50;92.50;;;;;;5036640;28;21016;-75
2021/08/23 07:07:08;;;;;;;4.23;3.03;;;17.60;92.20;;;;;;5036987;28;20509;-75
2021/08/23 07:09:35;;;;;;;3.13;2.83;;;17.70;91.40;;;;;;5036635;28;20474;-75
2021/08/23 07:12:02;;;;;;;6.30;3.00;;;17.80;90.30;;;;;;5038771;28;20515;-76
2021/08/23 07:14:29;;;;;;;4.27;3.20;;;17.80;88.90;;;;;;5038290;28;20491;-75
2021/08/23 07:16:57;;;;;;;4.17;3.07;;;17.80;89.50;;;;;;5038182;28;20891;-78
2021/08/23 07:19:24;;;;;;;3.20;2.73;;;17.80;89.10;;;;;;5041966;28;20455;-75
2021/08/23 07:21:51;;;;;;;4.70;3.07;;;17.80;89.40;;;;;;5041351;28;20524;-75
2021/08/23 07:24:18;;;;;;;5.60;3.10;;;17.80;88.00;;;;;;5036952;28;20459;-76
2021/08/23 07:26:46;;;;;;;5.57;3.00;;;17.80;89.10;;;;;;5037499;28;20907;-75
2021/08/23 07:29:13;;;;;;;9.80;3.60;;;17.80;88.50;;;;;;5036930;28;20522;-76
2021/08/23 07:31:40;;;;;;;3.60;3.30;;;17.80;89.60;;;;;;5040896;28;20488;-76
2021/08/23 07:34:09;;;;;;;5.00;3.20;;;17.90;88.90;;;;;;5037859;28;20533;-75
2021/08/23 07:36:36;;;;;;;4.50;3.13;;;17.90;87.40;;;;;;5045585;28;20883;-76
2021/08/23 07:39:03;;;;;;;7.17;3.63;;;18.00;87.80;;;;;;5035334;28;20445;-76
2021/08/23 07:41:30;;;;;;;4.00;3.10;;;18.20;86.20;;;;;;5036306;28;20546;-76
2021/08/23 07:43:57;;;;;;;3.40;3.10;;;18.30;83.90;;;;;;5036972;28;20488;-75
2021/08/23 07:46:24;;;;;;;3.37;3.07;;;18.50;84.00;;;;;;5037043;28;20457;-76
2021/08/23 07:48:51;;;;;;;3.60;2.50;;;18.70;83.50;;;;;;5035980;28;20566;-76
2021/08/23 07:51:19;;;;;;;3.53;3.23;;;18.70;81.80;;;;;;5042784;28;20483;-76
2021/08/23 07:53:46;;;;;;;3.30;3.00;;;18.60;79.80;;;;;;5043340;28;20480;-76
2021/08/23 07:56:12;;;;;;;5.37;3.33;;;18.70;81.60;;;;;;5037155;28;20464;-76
2021/08/23 07:58:39;;;;;;;3.90;3.13;;;19.00;81.60;;;;;;5037330;28;20537;-76
2021/08/23 08:01:06;;;;;;;5.63;3.70;;;19.10;79.60;;;;;;5038047;28;20484;-75
2021/08/23 08:03:33;;;;;;;5.03;3.27;;;19.20;76.00;;;;;;5039686;28;20465;-76
2021/08/23 08:06:00;;;;;;;4.50;3.10;;;19.30;75.40;;;;;;5041039;28;20973;-75
2021/08/23 08:08:29;;;;;;;5.10;3.00;;;19.50;75.10;;;;;;5038948;28;20468;-75
2021/08/23 08:10:57;;;;;;;4.60;3.33;;;19.60;75.90;;;;;;5038833;28;20454;-75
2021/08/23 08:13:24;;;;;;;5.57;3.63;;;19.80;73.90;;;;;;5039167;28;20450;-76
2021/08/23 08:15:51;;;;;;;7.20;2.70;;;20.00;72.30;;;;;;5047911;28;20478;-75
2021/08/23 08:18:18;;;;;;;3.10;2.80;;;20.00;70.10;;;;;;5057454;28;20450;-76
2021/08/23 08:20:45;;;;;;;4.80;3.23;;;20.00;67.80;;;;;;5039896;28;20500;-75
2021/08/23 08:23:12;;;;;;;9.77;3.27;;;19.90;67.70;;;;;;5056759;28;20466;-76
2021/08/23 08:25:41;;;;;;;4.77;2.93;;;20.00;69.30;;;;;;5057012;28;20450;-76
2021/08/23 08:28:08;;;;;;;2.87;2.63;;;20.30;67.60;;;;;;5038078;28;20506;-75
2021/08/23 08:30:34;;;;;;;2.80;2.43;;;20.30;65.80;;;;;;5037368;28;20455;-75
2021/08/23 08:33:01;;;;;;;4.70;2.43;;;20.50;63.60;;;;;;5034965;28;20527;-76
2021/08/23 08:35:28;;;;;;;3.23;2.40;;;20.70;63.90;;;;;;5034547;28;20515;-76
2021/08/23 08:37:55;;;;;;;2.77;2.50;;;20.70;63.60;;;;;;5035487;28;20546;-74
2021/08/23 08:40:23;;;;;;;3.13;2.53;;;20.70;62.80;;;;;;5035105;28;20461;-75
2021/08/23 08:42:52;;;;;;;3.10;2.67;;;20.80;63.40;;;;;;5033426;28;20486;-75
2021/08/23 08:45:19;;;;;;;2.70;2.50;;;20.90;62.90;;;;;;5035603;28;20546;-75
2021/08/23 08:47:46;;;;;;;4.00;2.67;;;20.80;62.90;;;;;;5035245;28;20486;-75
2021/08/23 08:50:16;;;;;;;2.70;2.50;;;20.90;62.00;;;;;;5034915;28;20512;-76
2021/08/23 08:52:45;;;;;;;2.40;2.20;;;20.80;62.50;;;;;;5036288;28;20445;-76
2021/08/23 08:55:12;;;;;;;3.10;2.57;;;20.90;62.30;;;;;;5036349;28;20443;-74
2021/08/23 08:57:40;;;;;;;2.70;2.33;;;20.90;61.80;;;;;;5034551;28;20886;-75
2021/08/23 09:00:10;;;;;;;2.93;2.60;;;20.90;62.80;;;;;;5034364;28;20448;-75
2021/08/23 09:02:37;;;;;;;3.67;2.83;;;21.00;62.30;;;;;;5034181;28;20851;-75
2021/08/23 09:05:05;;;;;;;3.40;2.90;;;20.80;63.40;;;;;;5034207;28;20474;-75
2021/08/23 09:07:38;;;;;;;4.10;3.17;;;20.70;63.80;;;;;;5033812;28;20454;-76
2021/08/23 09:10:18;;;;;;;3.60;2.70;;;20.60;64.00;;;;;;5033325;28;20489;-75
2021/08/23 09:12:45;;;;;;;5.30;2.90;;;20.60;64.60;;;;;;5033329;28;21017;-75
2021/08/23 09:15:16;;;;;;;2.67;2.47;;;20.40;66.40;;;;;;5033633;28;20485;-74
2021/08/23 09:17:45;;;;;;;3.87;2.30;;;20.40;66.20;;;;;;5033593;28;20541;-75
2021/08/23 09:20:15;;;;;;;2.40;2.20;;;20.40;65.50;;;;;;5033288;28;20545;-74
2021/08/23 09:22:42;;;;;;;3.47;3.07;;;20.50;64.90;;;;;;5033284;28;20500;-75
2021/08/23 09:25:10;;;;;;;3.30;3.00;;;20.70;64.40;;;;;;5033839;28;20479;-75
2021/08/23 09:27:37;;;;;;;3.50;3.20;;;20.70;63.70;;;;;;5034096;28;20460;-74
2021/08/23 09:30:06;;;;;;;4.10;3.70;;;20.70;63.40;;;;;;5033387;28;20586;-75
2021/08/23 09:32:36;;;;;;;5.90;3.40;;;20.80;63.20;;;;;;5034302;28;20486;-75
2021/08/23 09:35:04;;;;;;;3.73;3.43;;;20.80;63.60;;;;;;5033968;28;20440;-76
2021/08/23 09:37:33;;;;;;;3.50;3.20;;;20.70;64.40;;;;;;5036006;28;21031;-74
2021/08/23 09:40:09;;;;;;;3.47;3.17;;;20.90;63.20;;;;;;5038740;28;20543;-75
2021/08/23 09:42:36;;;;;;;4.97;3.60;;;20.80;62.90;;;;;;5041438;28;20471;-75
2021/08/23 09:45:03;;;;;;;4.33;3.47;;;20.80;62.50;;;;;;5035217;28;20429;-75
2021/08/23 09:47:31;;;;;;;6.83;3.90;;;20.90;64.00;;;;;;5035305;28;20545;-75
2021/08/23 09:49:59;;;;;;;3.37;3.07;;;21.00;62.50;;;;;;5033563;28;20573;-75
2021/08/23 09:52:31;;;;;;;3.43;3.13;;;21.10;61.40;;;;;;5033856;28;20475;-76
2021/08/23 09:55:04;;;;;;;5.07;3.27;;;21.20;61.10;;;;;;5036792;28;20491;-75
2021/08/23 09:57:33;;;;;;;4.13;3.67;;;21.10;61.00;;;;;;5035198;28;20512;-75
2021/08/23 10:00:00;;;;;;;4.20;3.40;;;21.10;60.70;;;;;;5035647;28;20562;-75
2021/08/23 10:02:28;;;;;;;4.90;3.00;;;21.20;61.20;;;;;;5061217;22;20494;-79
2021/08/23 10:05:15;;;;;;;3.67;3.20;;;21.60;60.00;;;;;;5042742;28;20524;-79
2021/08/23 10:07:43;;;;;;;4.30;3.03;;;21.50;60.00;;;;;;5041164;28;20456;-79
2021/08/23 10:10:11;;;;;;;4.20;3.17;;;21.70;59.80;;;;;;5043028;28;20557;-80
2021/08/23 10:12:39;;;;;;;3.80;3.40;;;21.60;60.00;;;;;;5044169;28;20471;-81
2021/08/23 10:15:07;;;;;;;3.97;2.90;;;21.80;60.20;;;;;;5043552;28;20532;-79
2021/08/23 10:17:37;;;;;;;4.57;2.80;;;22.00;58.50;;;;;;5040561;28;20467;-81
2021/08/23 10:20:04;;;;;;;3.47;2.63;;;22.30;57.20;;;;;;5044538;28;20449;-81
2021/08/23 10:22:34;;;;;;;3.00;2.80;;;22.50;54.40;;;;;;5051477;28;20491;-80
2021/08/23 10:25:02;;;;;;;3.83;2.67;;;22.40;54.50;;;;;;5041820;28;20541;-80
2021/08/23 10:27:34;;;;;;;4.00;2.80;;;22.50;53.90;;;;;;5041741;28;20889;-80
2021/08/23 10:30:01;;;;;;;3.43;2.87;;;22.60;52.20;;;;;;5039285;28;20469;-81
2021/08/23 10:32:35;;;;;;;4.47;2.60;;;22.20;53.20;;;;;;5049599;28;20460;-79
2021/08/23 10:35:17;;;;;;;3.77;3.00;;;22.30;54.50;;;;;;5052777;28;20494;-80
2021/08/23 10:37:45;;;;;;;2.90;2.57;;;22.60;52.80;;;;;;5044610;28;20437;-80
2021/08/23 10:40:14;;;;;;;3.30;2.13;;;22.80;52.60;;;;;;5043525;28;20461;-80
2021/08/23 10:42:43;;;;;;;2.70;2.50;;;22.80;52.80;;;;;;5041782;28;20508;-80
2021/08/23 10:45:15;;;;;;;2.53;2.33;;;23.00;51.90;;;;;;5037351;28;20473;-79
2021/08/23 10:47:42;;;;;;;2.63;2.40;;;23.10;51.80;;;;;;5038487;28;20775;-80
2021/08/23 10:50:20;;;;;;;4.73;2.13;;;22.90;51.60;;;;;;5036297;28;21012;-78
2021/08/23 10:52:49;;;;;;;2.80;2.60;;;22.80;52.90;;;;;;5037108;28;20567;-79
2021/08/23 10:55:21;;;;;;;3.43;2.07;;;22.90;51.60;;;;;;5037145;28;20460;-78
2021/08/23 10:57:48;;;;;;;2.40;2.30;;;23.20;50.40;;;;;;5037933;28;20553;-79
2021/08/23 11:00:17;;;;;;;2.80;2.57;;;23.30;51.40;;;;;;5039342;28;20457;-79
2021/08/23 11:02:44;;;;;;;2.30;2.10;;;23.20;51.30;;;;;;5041410;28;20492;-78
2021/08/23 11:05:13;;;;;;;2.33;2.13;;;23.30;50.40;;;;;;5042928;28;20449;-79
2021/08/23 11:07:42;;;;;;;3.10;2.73;;;23.30;50.10;;;;;;5046578;28;20518;-79
2021/08/23 11:10:13;;;;;;;2.33;2.13;;;23.10;51.80;;;;;;5052159;28;20548;-77
2021/08/23 11:12:44;;;;;;;5.40;2.40;;;23.10;51.80;;;;;;5059230;28;20447;-78
2021/08/23 11:15:17;;;;;;;4.63;2.83;;;22.60;53.30;;;;;;5059996;28;20464;-79
2021/08/23 11:17:47;;;;;;;3.43;2.60;;;22.30;54.60;;;;;;5060138;28;20497;-77
2021/08/23 11:20:19;;;;;;;3.37;2.87;;;22.30;55.10;;;;;;5059580;28;20445;-77
2021/08/23 11:22:55;;;;;;;2.40;2.20;;;22.50;54.20;;;;;;5057299;28;20476;-78
2021/08/23 11:25:32;;;;;;;3.80;2.50;;;22.60;52.70;;;;;;5055166;28;20928;-79
2021/08/23 11:28:00;;;;;;;3.03;2.50;;;22.60;52.20;;;;;;5053941;28;20459;-79
2021/08/23 11:30:32;;;;;;;2.60;2.30;;;22.50;52.10;;;;;;5048914;28;20510;-79
2021/08/23 11:32:59;;;;;;;2.30;2.13;;;22.50;53.60;;;;;;5050987;28;21022;-79
2021/08/23 11:35:26;;;;;;;2.60;1.80;;;22.70;52.10;;;;;;5051461;28;20484;-78
2021/08/23 11:37:58;;;;;;;1.90;1.80;;;23.00;51.00;;;;;;5055362;28;20466;-78
2021/08/23 11:40:26;;;;;;;3.00;2.00;;;23.10;51.80;;;;;;5056073;28;20431;-78
2021/08/23 11:42:55;;;;;;;2.27;2.00;;;23.50;51.00;;;;;;5057571;28;20480;-80
2021/08/23 11:45:24;;;;;;;1.67;1.57;;;23.80;49.40;;;;;;5055633;28;20524;-80
2021/08/23 11:47:51;;;;;;;1.70;1.47;;;23.90;49.10;;;;;;5057771;28;20446;-80
2021/08/23 11:50:20;;;;;;;1.23;1.13;;;23.80;48.60;;;;;;5058864;28;20523;-79
2021/08/23 11:52:47;;;;;;;1.70;1.60;;;23.60;48.80;;;;;;5054130;28;20474;-79
2021/08/23 11:55:25;;;;;;;2.10;1.30;;;23.70;49.20;;;;;;5051507;28;20812;-79
2021/08/23 11:58:01;;;;;;;2.93;1.50;;;24.00;49.10;;;;;;5048480;28;20501;-79
2021/08/23 12:00:29;;;;;;;1.50;1.40;;;24.20;48.10;;;;;;5048282;28;20457;-79
2021/08/23 12:03:10;;;;;;;1.10;1.00;;;24.30;47.80;;;;;;5053124;28;20492;-79
2021/08/23 12:05:40;;;;;;;1.07;0.97;;;24.50;48.20;;;;;;5056437;28;20418;-80
2021/08/23 12:08:10;;;;;;;1.97;1.30;;;24.50;47.30;;;;;;5058416;28;20434;-79
2021/08/23 12:10:39;;;;;;;1.37;1.17;;;24.50;48.10;;;;;;5058278;28;20473;-79
2021/08/23 12:13:14;;;;;;;1.50;1.40;;;24.50;47.50;;;;;;5057894;28;20537;-78
2021/08/23 12:15:55;;;;;;;1.00;1.00;;;24.20;48.10;;;;;;5058467;28;20437;-79
2021/08/23 12:18:30;;;;;;;1.20;1.00;;;24.20;48.00;;;;;;5057771;28;20521;-79
2021/08/23 12:21:05;;;;;;;1.10;1.10;;;24.40;48.20;;;;;;5057247;28;20453;-79
2021/08/23 12:23:48;;;;;;;1.30;1.20;;;24.30;47.60;;;;;;5058053;28;20528;-78
2021/08/23 12:26:16;;;;;;;1.40;1.23;;;24.20;49.00;;;;;;5058516;28;20457;-78
2021/08/23 12:28:52;;;;;;;1.33;1.23;;;23.90;49.20;;;;;;5059282;28;20473;-77
2021/08/23 12:31:19;;;;;;;1.20;1.10;;;23.90;48.60;;;;;;5057623;28;20461;-78
2021/08/23 12:33:46;;;;;;;1.43;1.33;;;23.70;49.30;;;;;;5054771;28;20450;-80
2021/08/23 12:36:14;;;;;;;1.63;1.53;;;23.30;49.40;;;;;;5056418;28;20468;-80
2021/08/23 12:38:43;;;;;;;2.00;1.80;;;22.90;50.20;;;;;;5054580;28;20450;-80
2021/08/23 12:41:11;;;;;;;3.30;1.77;;;22.60;51.30;;;;;;5057971;28;20468;-80
2021/08/23 12:43:39;;;;;;;1.70;1.57;;;22.50;51.20;;;;;;5058101;28;20453;-81
2021/08/23 12:46:07;;;;;;;2.27;2.07;;;22.40;51.70;;;;;;5056352;28;20483;-80
2021/08/23 12:48:35;;;;;;;3.37;2.47;;;22.60;51.30;;;;;;5050445;28;20968;-79
2021/08/23 12:51:03;;;;;;;2.53;2.33;;;22.90;48.70;;;;;;5051117;28;20466;-80
2021/08/23 12:53:31;;;;;;;2.27;2.17;;;22.90;49.30;;;;;;5053442;28;20490;-81